Time;durP1;ratioP1;P1;durP2;ratioP2;P2;SDS_P1;SDS_P2;PMS_P1;PMS_P2;Temp;Humidity;BMP_temperature;BMP_pressure;BME280_temperature;BME280_humidity;BME280_pressure;Samples;Min_cycle;Max_cycle;Signal;HPM_P1;HPM_P2
2022/09/27 00:01:49;;;;;;;10.18;3.28;;;;;;;31.94;24.80;100574.97;5006901;28;20132;-77
2022/09/27 00:04:18;;;;;;;10.23;2.90;;;;;;;31.96;24.94;100572.25;5023787;28;20049;-75
2022/09/27 00:06:46;;;;;;;13.07;2.65;;;;;;;31.93;25.72;100578.63;5023318;28;20056;-79
2022/09/27 00:09:15;;;;;;;23.23;3.53;;;;;;;31.89;25.12;100581.59;5017745;28;20049;-77
2022/09/27 00:11:46;;;;;;;6.55;2.78;;;;;;;31.84;25.36;100576.53;5024569;28;20052;-79
2022/09/27 00:14:16;;;;;;;9.98;2.67;;;;;;;31.81;25.78;100575.84;5025368;28;20570;-74
2022/09/27 00:16:45;;;;;;;5.75;2.60;;;;;;;31.76;25.62;100568.09;5032615;28;20139;-76
2022/09/27 00:19:16;;;;;;;9.05;2.95;;;;;;;31.71;25.81;100573.75;5023841;28;21012;-75
2022/09/27 00:21:46;;;;;;;6.73;2.80;;;;;;;31.68;26.08;100567.72;5026590;28;20045;-76
2022/09/27 00:24:16;;;;;;;13.98;3.03;;;;;;;31.65;25.96;100574.09;5036069;28;20049;-76
2022/09/27 00:26:47;;;;;;;9.60;3.00;;;;;;;31.64;26.60;100572.41;5028411;28;20053;-76
2022/09/27 00:29:16;;;;;;;7.13;2.83;;;;;;;31.64;26.39;100575.06;5025036;28;20741;-75
2022/09/27 00:31:45;;;;;;;8.40;3.03;;;;;;;31.60;26.32;100570.88;5025979;28;20132;-77
2022/09/27 00:34:20;;;;;;;7.20;2.97;;;;;;;31.52;26.17;100563.31;5021249;28;20488;-76
2022/09/27 00:36:49;;;;;;;10.38;3.72;;;;;;;31.46;26.35;100568.19;5027741;28;20053;-75
2022/09/27 00:39:18;;;;;;;17.52;3.50;;;;;;;31.34;27.76;100561.75;5026216;28;20060;-76
2022/09/27 00:41:48;;;;;;;8.48;3.03;;;;;;;31.21;29.17;100566.09;5026189;28;20056;-74
2022/09/27 00:44:56;;;;;;;9.93;2.90;;;;;;;31.02;27.35;100563.66;5023620;28;20037;-76
2022/09/27 00:47:30;;;;;;;12.40;3.40;;;;;;;30.92;30.82;100560.66;5005016;28;20042;-76
2022/09/27 00:50:03;;;;;;;11.15;3.10;;;;;;;30.79;29.40;100562.31;5022122;28;20054;-76
2022/09/27 00:52:39;;;;;;;9.52;3.50;;;;;;;30.66;29.23;100557.66;5027816;28;20049;-73
2022/09/27 00:55:15;;;;;;;10.73;2.60;;;;;;;30.54;29.62;100561.03;5026888;28;20048;-75
2022/09/27 00:57:47;;;;;;;12.80;2.83;;;;;;;30.44;29.71;100552.69;5023488;28;20049;-75
2022/09/27 01:00:16;;;;;;;10.65;3.13;;;;;;;30.35;29.75;100549.66;5031215;28;20056;-76
2022/09/27 01:02:49;;;;;;;9.13;2.83;;;;;;;30.29;30.62;100556.22;5024140;28;20064;-73
2022/09/27 01:05:20;;;;;;;9.95;3.13;;;;;;;30.22;30.40;100553.00;5030602;28;20045;-75
2022/09/27 01:07:49;;;;;;;7.47;2.97;;;;;;;30.16;30.95;100545.34;5022642;28;20144;-74
2022/09/27 01:10:19;;;;;;;5.60;2.72;;;;;;;30.09;31.02;100543.97;5027598;28;20054;-73
2022/09/27 01:12:59;;;;;;;8.63;3.10;;;;;;;29.99;30.97;100546.28;5036981;28;20616;-75
2022/09/27 01:15:36;;;;;;;7.63;3.28;;;;;;;29.91;31.05;100542.31;5027156;28;20076;-76
2022/09/27 01:18:20;;;;;;;8.45;3.00;;;;;;;29.84;31.19;100542.63;5018161;28;20267;-75
2022/09/27 01:21:30;;;;;;;7.85;2.90;;;;;;;29.75;31.10;100536.94;5003399;28;20668;-74
2022/09/27 01:24:22;;;;;;;4.20;2.90;;;;;;;29.67;31.91;100547.13;5017125;28;20057;-75
2022/09/27 01:27:26;;;;;;;11.25;3.20;;;;;;;29.57;31.93;100539.63;5027710;28;20128;-74
2022/09/27 01:30:19;;;;;;;8.20;2.75;;;;;;;29.44;32.26;100534.06;5024477;28;20503;-72
2022/09/27 01:32:55;;;;;;;7.70;2.80;;;;;;;29.35;32.29;100537.22;5019981;28;20045;-73
2022/09/27 01:35:31;;;;;;;5.28;2.83;;;;;;;29.25;32.81;100533.31;5022187;28;20496;-73
2022/09/27 01:38:10;;;;;;;6.68;2.30;;;;;;;29.15;33.24;100526.75;5020497;28;20057;-72
2022/09/27 01:40:45;;;;;;;7.40;2.63;;;;;;;28.97;33.52;100528.50;5031147;28;20609;-72
2022/09/27 01:43:18;;;;;;;3.55;2.30;;;;;;;28.81;33.71;100528.41;5030614;28;20099;-73
2022/09/27 01:45:52;;;;;;;12.90;2.28;;;;;;;28.60;33.36;100515.22;5025285;28;20692;-72
2022/09/27 01:48:24;;;;;;;7.50;2.90;;;;;;;28.52;33.74;100525.41;5031141;28;20045;-74
2022/09/27 01:51:03;;;;;;;;;;;;;;;28.43;34.02;100525.81;5025307;28;20446;-73
2022/09/27 01:53:36;;;;;;;8.48;3.20;;;;;;;28.33;34.26;100520.06;5033478;28;19936;-72
2022/09/27 01:56:08;;;;;;;4.95;2.90;;;;;;;28.24;34.67;100523.16;5030417;28;20529;-73
2022/09/27 01:58:44;;;;;;;8.93;3.08;;;;;;;28.11;34.79;100536.22;5018172;28;20049;-73
2022/09/27 02:01:15;;;;;;;9.07;2.90;;;;;;;27.99;35.38;100532.31;5014458;28;20049;-71
2022/09/27 02:03:50;;;;;;;9.20;3.38;;;;;;;27.86;35.67;100535.63;5015376;27;20065;-72
2022/09/27 02:06:23;;;;;;;17.33;4.70;;;;;;;27.72;36.20;100537.09;5007597;28;20062;-72
2022/09/27 02:08:56;;;;;;;5.68;2.97;;;;;;;27.58;37.34;100534.19;5004445;28;20045;-73
2022/09/27 02:11:24;;;;;;;9.40;3.25;;;;;;;27.43;37.51;100537.53;5011659;28;20049;-73
2022/09/27 02:13:56;;;;;;;10.02;3.60;;;;;;;27.26;36.80;100525.84;5010493;28;20049;-72
2022/09/27 02:16:35;;;;;;;8.48;3.60;;;;;;;27.11;37.41;100531.78;4996348;28;20046;-73
2022/09/27 02:19:14;;;;;;;9.35;3.67;;;;;;;26.97;37.97;100535.03;4999755;28;20543;-72
2022/09/27 02:21:54;;;;;;;16.50;3.97;;;;;;;26.85;38.57;100539.06;5007297;28;20048;-72
2022/09/27 02:24:31;;;;;;;10.75;3.20;;;;;;;26.74;39.19;100541.28;5015027;28;20566;-72
2022/09/27 02:27:07;;;;;;;5.32;3.00;;;;;;;26.60;39.22;100541.84;5013645;28;20060;-72
2022/09/27 02:29:40;;;;;;;9.93;3.25;;;;;;;26.40;39.60;100547.91;5009311;28;20054;-71
2022/09/27 02:32:09;;;;;;;6.70;3.08;;;;;;;26.15;42.03;100548.00;4999167;28;20614;-71
2022/09/27 02:34:41;;;;;;;13.05;3.00;;;;;;;25.96;43.01;100547.84;4998764;28;20133;-72
2022/09/27 02:37:10;;;;;;;9.45;2.58;;;;;;;25.79;44.32;100550.22;5004115;28;20060;-72
2022/09/27 02:39:39;;;;;;;10.38;3.13;;;;;;;25.66;44.73;100555.97;5008321;28;20327;-73
2022/09/27 02:42:08;;;;;;;9.18;2.97;;;;;;;25.53;45.19;100549.38;5009160;28;20057;-71
2022/09/27 02:44:37;;;;;;;4.10;2.65;;;;;;;25.42;45.44;100557.72;5007937;28;20050;-74
2022/09/27 02:47:21;;;;;;;4.40;2.72;;;;;;;25.33;45.95;100563.31;4997892;28;20141;-73
2022/09/27 02:50:03;;;;;;;6.90;2.80;;;;;;;25.24;45.04;100559.25;5001915;28;20050;-75
2022/09/27 02:52:44;;;;;;;11.90;3.67;;;;;;;25.12;44.97;100549.03;5006274;28;20089;-73
2022/09/27 02:55:20;;;;;;;6.75;3.53;;;;;;;25.08;45.27;100560.63;5010022;28;20124;-72
2022/09/27 02:58:02;;;;;;;8.45;3.20;;;;;;;25.00;45.16;100566.19;5006887;28;20057;-73
2022/09/27 03:00:39;;;;;;;6.50;3.22;;;;;;;24.88;45.84;100562.16;5005452;28;20046;-71
2022/09/27 03:03:19;;;;;;;8.15;2.97;;;;;;;24.78;46.08;100555.44;5012419;28;20065;-71
2022/09/27 03:06:04;;;;;;;10.05;3.47;;;;;;;24.69;45.73;100560.16;5019282;28;20081;-72
2022/09/27 03:08:33;;;;;;;8.32;3.97;;;;;;;24.61;46.08;100563.91;5027633;28;20095;-71
2022/09/27 03:11:08;;;;;;;9.15;3.80;;;;;;;24.56;46.70;100567.63;5025647;28;20656;-73
2022/09/27 03:13:37;;;;;;;9.77;3.47;;;;;;;24.49;45.99;100563.44;5021597;28;20695;-73
2022/09/27 03:16:06;;;;;;;6.32;3.35;;;;;;;24.42;46.07;100560.97;5022779;28;20037;-73
2022/09/27 03:18:35;;;;;;;10.38;3.47;;;;;;;24.34;45.66;100570.91;5026740;28;20052;-73
2022/09/27 03:21:05;;;;;;;10.40;3.78;;;;;;;24.29;45.82;100562.25;5024368;28;20076;-73
2022/09/27 03:23:34;;;;;;;4.80;3.15;;;;;;;24.24;46.19;100566.81;5026354;28;20060;-74
2022/09/27 03:26:03;;;;;;;14.00;3.85;;;;;;;24.17;46.49;100562.63;5025845;28;20052;-70
2022/09/27 03:28:31;;;;;;;11.35;3.88;;;;;;;24.12;46.32;100580.38;5025955;28;20060;-72
2022/09/27 03:30:59;;;;;;;9.73;3.50;;;;;;;24.04;46.95;100573.53;5022799;28;20046;-72
2022/09/27 03:33:28;;;;;;;7.88;3.90;;;;;;;23.96;48.48;100575.56;5026092;28;20495;-71
2022/09/27 03:35:56;;;;;;;10.50;3.65;;;;;;;23.86;48.92;100579.34;5022075;28;20053;-72
2022/09/27 03:38:27;;;;;;;14.77;3.97;;;;;;;23.80;48.79;100574.25;5027967;28;20045;-72
2022/09/27 03:40:55;;;;;;;12.93;3.97;;;;;;;23.77;49.22;100579.63;5022765;28;20131;-73
2022/09/27 03:43:24;;;;;;;10.15;4.07;;;;;;;23.73;48.44;100583.22;5027240;28;20049;-72
2022/09/27 03:45:52;;;;;;;17.77;3.90;;;;;;;23.69;48.71;100576.31;5027412;28;20053;-74
2022/09/27 03:48:21;;;;;;;9.80;3.55;;;;;;;23.62;49.92;100573.81;5022828;28;20134;-72
2022/09/27 03:50:51;;;;;;;8.77;3.50;;;;;;;23.55;50.41;100577.53;5024075;28;20045;-71
2022/09/27 03:53:20;;;;;;;9.95;3.83;;;;;;;23.46;49.39;100579.56;5027699;28;20060;-70
2022/09/27 03:55:50;;;;;;;9.40;4.05;;;;;;;23.36;49.03;100581.56;5027764;28;20050;-70
2022/09/27 03:58:18;;;;;;;7.07;3.53;;;;;;;23.31;49.45;100576.41;5025315;28;20045;-72
2022/09/27 04:00:47;;;;;;;11.90;3.35;;;;;;;23.27;49.35;100582.66;5027008;28;20050;-71
2022/09/27 04:03:16;;;;;;;8.95;3.58;;;;;;;23.23;48.66;100582.78;5025634;27;20054;-73
2022/09/27 04:05:44;;;;;;;11.00;4.10;;;;;;;23.15;48.51;100581.22;5019867;28;20190;-71
2022/09/27 04:08:13;;;;;;;13.85;3.88;;;;;;;23.11;48.71;100579.56;5020509;28;20095;-70
2022/09/27 04:10:43;;;;;;;13.63;3.70;;;;;;;23.06;49.23;100576.16;5024014;28;20061;-71
2022/09/27 04:13:13;;;;;;;14.55;3.78;;;;;;;23.01;48.86;100578.06;5022594;28;20060;-72
2022/09/27 04:15:43;;;;;;;9.35;3.28;;;;;;;22.94;48.67;100582.59;5016286;28;20128;-71
2022/09/27 04:18:11;;;;;;;11.88;3.30;;;;;;;22.88;48.96;100576.59;5022370;28;20415;-72
2022/09/27 04:20:40;;;;;;;17.10;3.72;;;;;;;22.82;48.88;100576.75;5022913;28;20594;-73
2022/09/27 04:23:08;;;;;;;11.70;3.95;;;;;;;22.77;49.75;100580.38;5018583;28;20053;-72
2022/09/27 04:25:38;;;;;;;12.50;4.07;;;;;;;22.73;49.61;100586.59;5026367;28;20447;-72
2022/09/27 04:28:07;;;;;;;13.75;4.43;;;;;;;22.70;49.34;100585.78;5022610;28;20053;-72
2022/09/27 04:30:37;;;;;;;12.75;4.43;;;;;;;22.66;48.94;100582.38;5027343;28;20570;-72
2022/09/27 04:33:06;;;;;;;13.02;4.15;;;;;;;22.62;49.42;100585.13;5022897;28;20498;-72
2022/09/27 04:38:22;;;;;;;11.30;4.30;;;;;;;22.52;49.09;100581.84;5014338;28;20565;-71
2022/09/27 04:40:51;;;;;;;12.50;3.97;;;;;;;22.45;50.15;100589.00;5026407;28;20744;-72
2022/09/27 04:43:20;;;;;;;11.60;4.30;;;;;;;22.37;50.44;100586.53;5020636;28;20508;-72
2022/09/27 04:45:50;;;;;;;14.65;3.70;;;;;;;22.31;49.91;100575.25;5022599;28;20048;-72
2022/09/27 04:48:18;;;;;;;11.10;4.25;;;;;;;22.21;50.41;100573.69;5021000;28;20107;-72
2022/09/27 04:50:47;;;;;;;13.02;3.78;;;;;;;22.13;50.65;100581.78;5022459;28;20061;-72
2022/09/27 04:53:16;;;;;;;9.77;3.63;;;;;;;22.02;50.39;100581.13;5020189;28;20054;-73
2022/09/27 04:55:48;;;;;;;10.85;4.57;;;;;;;21.92;50.66;100577.78;5021194;28;20517;-73
2022/09/27 04:58:17;;;;;;;9.07;3.47;;;;;;;21.83;50.99;100576.22;5017122;28;20132;-72
2022/09/27 05:00:47;;;;;;;7.90;3.90;;;;;;;21.75;51.24;100580.75;5024131;28;20037;-73
2022/09/27 05:03:17;;;;;;;9.45;4.22;;;;;;;21.67;51.66;100577.41;5029465;28;20056;-72
2022/09/27 05:05:46;;;;;;;6.78;3.67;;;;;;;21.58;51.69;100573.19;5022362;28;20048;-72
2022/09/27 05:08:15;;;;;;;13.63;4.35;;;;;;;21.49;51.95;100579.50;5023931;28;20056;-70
2022/09/27 05:10:43;;;;;;;8.90;4.25;;;;;;;21.43;52.57;100579.59;5025526;28;20054;-71
2022/09/27 05:13:12;;;;;;;15.60;3.83;;;;;;;21.40;52.77;100590.19;5022948;28;20045;-72
2022/09/27 05:15:40;;;;;;;15.82;3.88;;;;;;;21.35;52.99;100599.91;5028733;28;20048;-71
2022/09/27 05:18:09;;;;;;;6.03;3.58;;;;;;;21.31;53.55;100591.19;5027879;28;20057;-71
2022/09/27 05:20:40;;;;;;;8.27;3.97;;;;;;;21.28;54.21;100593.00;5029332;28;20065;-71
2022/09/27 05:23:08;;;;;;;11.05;3.33;;;;;;;21.15;55.11;100589.72;5025583;28;20048;-73
2022/09/27 05:25:37;;;;;;;13.63;3.60;;;;;;;21.08;54.71;100580.19;5020762;28;20046;-72
2022/09/27 05:28:07;;;;;;;9.50;3.90;;;;;;;21.04;54.82;100586.38;5018456;28;20516;-72
2022/09/27 05:30:36;;;;;;;12.40;4.15;;;;;;;20.97;55.21;100577.72;5025763;28;20715;-72
2022/09/27 05:33:05;;;;;;;11.50;4.10;;;;;;;20.94;55.63;100585.69;5017395;28;20136;-72
2022/09/27 05:35:34;;;;;;;8.88;3.70;;;;;;;20.87;56.03;100578.78;5028889;28;20584;-72
2022/09/27 05:38:04;;;;;;;7.95;3.55;;;;;;;20.81;56.10;100578.88;5030224;28;20060;-73
2022/09/27 05:40:33;;;;;;;13.35;4.05;;;;;;;20.72;56.15;100579.88;5029983;28;20056;-73
2022/09/27 05:43:01;;;;;;;7.03;3.38;;;;;;;20.64;56.55;100577.38;5031496;28;20072;-70
2022/09/27 05:45:30;;;;;;;10.20;2.88;;;;;;;20.59;57.33;100576.56;5028465;28;20451;-70
2022/09/27 05:47:59;;;;;;;10.23;4.03;;;;;;;20.53;57.70;100570.50;5023063;28;20491;-71
2022/09/27 05:50:28;;;;;;;8.00;3.47;;;;;;;20.49;57.89;100577.56;5031436;28;20056;-69
2022/09/27 05:52:57;;;;;;;7.82;3.50;;;;;;;20.45;58.18;100575.84;5025114;28;20432;-68
2022/09/27 05:55:28;;;;;;;9.38;3.60;;;;;;;20.41;58.38;100576.78;5029200;28;20041;-69
2022/09/27 05:57:58;;;;;;;9.57;3.63;;;;;;;20.34;58.43;100567.25;5025336;28;20065;-68
2022/09/27 06:00:28;;;;;;;12.55;3.85;;;;;;;20.23;59.44;100570.91;5027237;28;20529;-68
2022/09/27 06:02:57;;;;;;;10.07;4.18;;;;;;;20.11;59.46;100575.44;5042144;27;20400;-69
2022/09/27 06:05:27;;;;;;;12.07;3.97;;;;;;;19.96;59.86;100561.59;5021820;28;20056;-69
2022/09/27 06:08:01;;;;;;;11.30;3.95;;;;;;;19.96;59.63;100579.13;5020884;28;20438;-68
2022/09/27 06:10:32;;;;;;;8.68;3.38;;;;;;;19.87;60.08;100582.72;5028992;28;20055;-69
2022/09/27 06:13:01;;;;;;;8.15;3.92;;;;;;;19.74;60.88;100583.75;5024632;28;20120;-69
2022/09/27 06:15:30;;;;;;;7.15;2.97;;;;;;;19.64;60.47;100581.19;5020582;28;20499;-69
2022/09/27 06:18:03;;;;;;;6.22;3.10;;;;;;;19.55;61.17;100570.78;5022843;28;20042;-68
2022/09/27 06:20:31;;;;;;;7.45;2.95;;;;;;;19.50;61.42;100563.84;5026629;28;20447;-68
2022/09/27 06:23:08;;;;;;;7.90;3.15;;;;;;;19.43;61.85;100565.66;5027161;28;20521;-69
2022/09/27 06:25:39;;;;;;;6.93;3.58;;;;;;;19.40;61.40;100573.56;5027109;28;20053;-69
2022/09/27 06:28:08;;;;;;;9.68;3.67;;;;;;;19.38;61.48;100573.59;5024950;28;20045;-69
2022/09/27 06:30:40;;;;;;;9.55;3.83;;;;;;;19.32;61.95;100565.75;5027772;28;20060;-68
2022/09/27 06:33:08;;;;;;;11.20;3.38;;;;;;;19.32;62.31;100573.63;5023387;28;20057;-69
2022/09/27 06:35:37;;;;;;;12.32;3.47;;;;;;;19.25;62.71;100572.81;5018736;28;20057;-69
2022/09/27 06:38:07;;;;;;;10.35;4.97;;;;;;;19.21;63.53;100565.00;5024325;28;20053;-69
2022/09/27 06:40:38;;;;;;;7.40;3.58;;;;;;;19.13;63.91;100562.44;5020122;28;20079;-69
2022/09/27 06:43:08;;;;;;;10.00;3.83;;;;;;;19.04;64.48;100570.41;5019524;28;20053;-68
2022/09/27 06:45:38;;;;;;;5.00;3.10;;;;;;;19.00;64.26;100582.66;5014833;28;20611;-69
2022/09/27 06:48:08;;;;;;;10.80;4.07;;;;;;;18.99;64.70;100580.06;5016782;28;20046;-69
2022/09/27 06:50:38;;;;;;;11.68;3.80;;;;;;;18.92;65.02;100574.00;5020121;28;20045;-67
2022/09/27 06:53:09;;;;;;;8.20;3.30;;;;;;;18.89;65.37;100574.00;5024995;28;20411;-67
2022/09/27 06:55:40;;;;;;;8.73;3.33;;;;;;;18.88;64.36;100577.50;5022265;28;20380;-68
2022/09/27 07:00:57;;;;;;;8.85;3.40;;;;;;;18.78;66.18;100568.84;5021417;28;20064;-66
2022/09/27 07:03:30;;;;;;;7.18;3.33;;;;;;;18.70;66.81;100573.22;5029484;27;20106;-67
2022/09/27 07:06:00;;;;;;;12.07;3.25;;;;;;;18.67;66.07;100572.38;5026055;28;20048;-66
2022/09/27 07:08:29;;;;;;;7.97;3.35;;;;;;;18.57;67.12;100569.81;5026415;28;20574;-66
2022/09/27 07:11:03;;;;;;;10.10;3.50;;;;;;;18.50;66.98;100573.34;5022785;28;20080;-66
2022/09/27 07:13:33;;;;;;;5.95;3.20;;;;;;;18.49;67.33;100583.88;5027972;28;20049;-67
2022/09/27 07:16:02;;;;;;;8.55;3.80;;;;;;;18.48;66.67;100588.22;5030652;28;20167;-68
2022/09/27 07:18:31;;;;;;;7.25;3.20;;;;;;;18.39;67.71;100583.03;5033660;28;20690;-67
2022/09/27 07:21:01;;;;;;;4.88;3.30;;;;;;;18.27;68.44;100583.09;5028644;28;20360;-68
2022/09/27 07:23:29;;;;;;;10.70;4.32;;;;;;;18.18;68.85;100592.72;5024046;28;20058;-67
2022/09/27 07:26:03;;;;;;;5.50;3.13;;;;;;;18.14;68.14;100596.25;5024358;28;20103;-68
2022/09/27 07:28:32;;;;;;;6.90;3.17;;;;;;;18.13;68.27;100586.63;5022512;28;20068;-67
2022/09/27 07:31:01;;;;;;;7.32;3.88;;;;;;;18.14;67.77;100588.41;5024277;28;20127;-66
2022/09/27 07:33:30;;;;;;;9.60;3.28;;;;;;;18.11;68.79;100598.00;5024949;28;20076;-67
2022/09/27 07:35:59;;;;;;;7.25;3.25;;;;;;;18.07;69.14;100597.13;5018671;28;20475;-67
2022/09/27 07:38:28;;;;;;;6.70;3.33;;;;;;;18.05;68.05;100598.00;5017459;28;20092;-67
2022/09/27 07:40:56;;;;;;;6.88;3.05;;;;;;;17.99;69.57;100596.31;5021183;28;20046;-66
2022/09/27 07:43:27;;;;;;;5.45;3.03;;;;;;;17.91;69.52;100590.22;5023765;28;20054;-68
2022/09/27 07:45:58;;;;;;;7.45;3.42;;;;;;;17.89;69.12;100592.84;5022544;28;20057;-68
2022/09/27 07:48:27;;;;;;;9.05;4.00;;;;;;;17.89;69.22;100587.63;5023996;28;20060;-67
2022/09/27 07:50:55;;;;;;;6.28;3.78;;;;;;;17.85;69.59;100591.13;5020252;28;20049;-67
2022/09/27 07:53:24;;;;;;;10.45;3.13;;;;;;;17.80;70.12;100598.94;5025487;28;20587;-67
2022/09/27 07:55:53;;;;;;;10.27;3.17;;;;;;;17.79;70.03;100586.72;5019434;28;20057;-68
2022/09/27 07:58:22;;;;;;;15.02;4.22;;;;;;;17.79;69.48;100586.72;5022892;28;20537;-67
2022/09/27 08:00:53;;;;;;;9.50;3.42;;;;;;;17.79;70.14;100589.34;5026361;28;20107;-67
2022/09/27 08:03:22;;;;;;;10.50;3.28;;;;;;;17.78;70.43;100589.38;5032592;28;20522;-68
2022/09/27 08:05:50;;;;;;;10.25;3.03;;;;;;;17.78;70.12;100589.38;5026186;28;20457;-67
2022/09/27 08:08:19;;;;;;;5.72;3.10;;;;;;;17.76;70.25;100586.75;5028618;28;20391;-69
2022/09/27 08:10:48;;;;;;;10.77;3.30;;;;;;;17.73;71.31;100592.00;5029516;28;20049;-68
2022/09/27 08:13:18;;;;;;;10.52;3.83;;;;;;;17.71;71.46;100587.63;5013706;28;20427;-68
2022/09/27 08:15:47;;;;;;;10.35;3.30;;;;;;;17.68;70.52;100585.88;5019513;28;20049;-67
2022/09/27 08:18:17;;;;;;;8.80;3.20;;;;;;;17.55;72.12;100592.91;5022192;28;20141;-67
2022/09/27 08:20:46;;;;;;;6.10;2.97;;;;;;;17.51;71.44;100596.38;5018245;28;20057;-68
2022/09/27 08:23:15;;;;;;;8.60;3.13;;;;;;;17.46;71.09;100584.19;5017521;28;20408;-67
2022/09/27 08:25:44;;;;;;;7.00;3.58;;;;;;;17.43;71.96;100577.22;5023884;28;20064;-67
2022/09/27 08:28:12;;;;;;;4.72;2.50;;;;;;;17.42;72.12;100570.25;5020513;28;20510;-67
2022/09/27 08:30:41;;;;;;;11.55;3.70;;;;;;;17.43;72.35;100571.09;5025646;28;20045;-68
2022/09/27 08:33:10;;;;;;;4.43;3.15;;;;;;;17.36;72.61;100576.38;5022577;28;20471;-67
2022/09/27 08:35:40;;;;;;;6.53;3.15;;;;;;;17.25;73.48;100562.44;5033691;28;20054;-67
2022/09/27 08:38:10;;;;;;;8.60;3.55;;;;;;;17.21;73.23;100560.69;5025338;28;20051;-67
2022/09/27 08:40:52;;;;;;;7.57;3.28;;;;;;;17.21;73.27;100555.44;5025307;28;20483;-68
2022/09/27 08:43:31;;;;;;;12.98;3.17;;;;;;;17.21;73.31;100547.59;5018295;28;20104;-68
2022/09/27 08:46:11;;;;;;;10.15;3.35;;;;;;;17.20;73.38;100556.31;5029243;28;20049;-67
2022/09/27 08:48:41;;;;;;;9.55;3.50;;;;;;;17.19;72.81;100554.56;5024967;28;20076;-67
2022/09/27 08:51:14;;;;;;;7.53;3.55;;;;;;;17.18;72.71;100555.47;5026237;28;20139;-68
2022/09/27 08:53:48;;;;;;;7.00;3.17;;;;;;;17.14;72.61;100551.09;5026627;28;20038;-68
2022/09/27 08:56:20;;;;;;;7.50;3.42;;;;;;;17.12;73.02;100558.06;5023896;28;20045;-67
2022/09/27 08:58:53;;;;;;;11.98;3.22;;;;;;;17.10;73.56;100552.84;5024888;28;20092;-67
2022/09/27 09:01:22;;;;;;;6.82;3.22;;;;;;;17.08;72.80;100559.81;5025265;28;20099;-67
2022/09/27 09:03:55;;;;;;;7.10;2.85;;;;;;;17.05;72.74;100554.59;5038760;28;20046;-67
2022/09/27 09:06:28;;;;;;;6.03;3.22;;;;;;;17.03;72.34;100558.06;5025048;28;20045;-67
2022/09/27 09:09:18;;;;;;;8.65;3.22;;;;;;;16.93;72.79;100568.53;5019299;28;20049;-66
2022/09/27 09:15:08;;;;;;;5.32;3.17;;;;;;;16.79;74.15;100572.88;5018444;28;20065;-67
2022/09/27 09:18:05;;;;;;;7.35;3.15;;;;;;;16.75;74.41;100571.09;5025976;28;20103;-66
2022/09/27 09:20:51;;;;;;;6.32;2.85;;;;;;;16.72;74.26;100560.63;5022301;28;20049;-68
2022/09/27 09:23:54;;;;;;;6.60;3.45;;;;;;;16.71;74.20;100564.97;5026130;28;20045;-67
2022/09/27 09:26:33;;;;;;;10.15;2.88;;;;;;;16.70;74.62;100563.25;5029678;28;20048;-67
2022/09/27 09:29:28;;;;;;;6.93;2.92;;;;;;;16.69;74.50;100560.63;5025965;28;20491;-68
2022/09/27 09:32:04;;;;;;;6.43;2.70;;;;;;;16.66;73.71;100555.41;5026015;28;20052;-67
2022/09/27 09:34:39;;;;;;;7.22;3.15;;;;;;;16.64;73.63;100559.75;5030393;28;20050;-67
2022/09/27 09:37:16;;;;;;;3.55;2.58;;;;;;;16.61;73.85;100551.94;5026949;28;20707;-67
2022/09/27 09:39:50;;;;;;;6.88;2.78;;;;;;;16.55;74.67;100543.19;5023533;28;20045;-66
2022/09/27 09:42:27;;;;;;;4.32;2.83;;;;;;;16.52;74.90;100542.34;5025383;28;20111;-67
2022/09/27 09:45:02;;;;;;;6.45;3.40;;;;;;;16.51;75.02;100537.97;5019769;28;20049;-67
2022/09/27 09:47:38;;;;;;;3.67;2.83;;;;;;;16.48;74.11;100546.66;5027305;28;20376;-67
2022/09/27 09:50:16;;;;;;;7.35;2.70;;;;;;;16.47;74.88;100550.16;5027886;28;20784;-67
2022/09/27 09:52:49;;;;;;;5.05;2.35;;;;;;;16.45;74.55;100546.66;5021283;28;20045;-67
2022/09/27 09:55:23;;;;;;;8.95;3.20;;;;;;;16.40;75.10;100553.63;5025899;28;20037;-66
2022/09/27 09:58:02;;;;;;;6.18;2.95;;;;;;;16.37;74.93;100542.28;5028188;28;20457;-67
2022/09/27 10:00:31;;;;;;;6.13;3.08;;;;;;;16.32;75.87;100537.94;5024269;28;20049;-67
2022/09/27 10:03:01;;;;;;;4.05;2.60;;;;;;;16.27;75.49;100546.63;5026988;28;20526;-67
2022/09/27 10:05:30;;;;;;;4.80;2.90;;;;;;;16.25;75.66;100532.69;5023114;28;20101;-68
2022/09/27 10:08:01;;;;;;;5.88;2.67;;;;;;;16.22;75.97;100543.13;5022412;28;20037;-67
2022/09/27 10:10:32;;;;;;;8.07;2.88;;;;;;;16.10;76.95;100534.41;5024440;28;20111;-67
2022/09/27 10:13:03;;;;;;;5.75;2.85;;;;;;;16.10;76.25;100538.72;5020801;28;20112;-67
2022/09/27 10:15:34;;;;;;;5.22;2.83;;;;;;;16.09;76.85;100537.00;5021863;28;20713;-67
2022/09/27 10:18:03;;;;;;;5.53;2.60;;;;;;;16.11;75.47;100530.03;5023346;28;20628;-67
2022/09/27 10:20:34;;;;;;;3.15;2.30;;;;;;;16.11;75.86;100540.47;5025125;28;20053;-67
2022/09/27 10:23:13;;;;;;;7.65;2.58;;;;;;;16.06;76.35;100543.09;5021500;28;21025;-67
2022/09/27 10:25:52;;;;;;;17.67;3.13;;;;;;;16.07;75.83;100538.72;5016907;28;20073;-67
2022/09/27 10:28:40;;;;;;;3.88;2.60;;;;;;;16.05;76.04;100543.06;5022513;28;20406;-67
2022/09/27 10:31:10;;;;;;;6.30;2.85;;;;;;;16.02;75.66;100550.88;5018543;28;20152;-67
2022/09/27 10:33:51;;;;;;;8.23;2.85;;;;;;;15.95;76.46;100536.94;5015454;28;20114;-67
2022/09/27 10:36:25;;;;;;;4.80;3.30;;;;;;;15.96;75.98;100551.72;5032959;28;20052;-66
2022/09/27 10:38:56;;;;;;;6.88;2.42;;;;;;;15.92;76.00;100542.16;5030644;28;20072;-66
2022/09/27 10:41:33;;;;;;;5.60;3.25;;;;;;;15.90;76.41;100546.50;5027741;28;20430;-67
2022/09/27 10:44:22;;;;;;;8.20;2.33;;;;;;;15.89;76.94;100542.13;5019897;28;20057;-67
2022/09/27 10:46:53;;;;;;;5.00;2.58;;;;;;;15.87;76.65;100541.25;5022514;28;20045;-67
2022/09/27 10:49:27;;;;;;;5.43;2.67;;;;;;;15.84;76.10;100546.47;5021814;28;20724;-67
2022/09/27 10:51:57;;;;;;;6.68;2.97;;;;;;;15.76;76.95;100553.38;5022555;28;20199;-67
2022/09/27 10:54:29;;;;;;;5.03;2.70;;;;;;;15.66;76.88;100550.69;5021734;28;20041;-67
2022/09/27 10:57:04;;;;;;;6.53;2.83;;;;;;;15.53;77.38;100559.31;5023159;28;20487;-68
2022/09/27 10:59:35;;;;;;;10.02;3.28;;;;;;;15.56;78.21;100551.50;5024234;28;20137;-68
2022/09/27 11:02:05;;;;;;;5.83;2.70;;;;;;;15.54;77.05;100557.56;5024491;28;20056;-67
2022/09/27 11:04:36;;;;;;;6.03;2.58;;;;;;;15.46;79.60;100580.97;5024893;27;20054;-67
2022/09/27 11:07:15;;;;;;;2.90;2.20;;;;;;;15.29;79.55;100583.47;5026211;28;20057;-67
2022/09/27 11:09:50;;;;;;;4.45;2.55;;;;;;;15.22;79.78;100566.91;5017321;28;20092;-67
2022/09/27 11:12:21;;;;;;;7.55;3.20;;;;;;;15.22;79.22;100571.25;5025539;28;20103;-67
2022/09/27 11:14:58;;;;;;;4.63;2.40;;;;;;;15.23;78.66;100575.59;5021954;28;20049;-67
2022/09/27 11:17:35;;;;;;;4.55;2.80;;;;;;;15.24;79.11;100585.19;5019382;28;20053;-67
2022/09/27 11:20:22;;;;;;;7.18;2.65;;;;;;;15.24;79.38;100578.22;5028127;28;20041;-67
2022/09/27 11:23:25;;;;;;;10.48;3.25;;;;;;;15.25;79.78;100572.13;5026181;28;20125;-67
2022/09/27 11:26:07;;;;;;;4.85;2.47;;;;;;;15.26;79.41;100573.91;5016680;28;20049;-67
2022/09/27 11:28:49;;;;;;;3.90;2.78;;;;;;;15.22;79.63;100568.66;5027888;28;20077;-67
2022/09/27 11:31:29;;;;;;;5.25;2.50;;;;;;;15.17;80.41;100575.56;5023064;28;20496;-66
2022/09/27 11:34:32;;;;;;;7.90;3.33;;;;;;;15.11;81.21;100581.59;5025710;28;20049;-66
2022/09/27 11:37:07;;;;;;;;;;;;;;;15.04;81.00;100572.84;5010045;28;20046;-67
2022/09/27 11:39:43;;;;;;;8.02;2.53;;;;;;;15.06;80.45;100575.47;5023438;28;19932;-67
2022/09/27 11:42:39;;;;;;;8.10;3.20;;;;;;;14.95;80.42;100574.50;5020988;28;20447;-67
2022/09/27 11:45:27;;;;;;;7.82;3.10;;;;;;;15.01;81.67;100583.25;5023170;28;20414;-67
2022/09/27 11:48:05;;;;;;;3.03;2.25;;;;;;;15.01;80.63;100582.38;5022784;28;20105;-67
2022/09/27 11:51:01;;;;;;;4.13;2.83;;;;;;;14.98;81.48;100592.75;5023132;28;20448;-67
2022/09/27 11:53:41;;;;;;;6.40;3.03;;;;;;;14.91;81.50;100583.16;5023931;28;20561;-67
2022/09/27 11:56:21;;;;;;;5.95;2.95;;;;;;;14.95;81.26;100582.31;5025404;28;20422;-67
2022/09/27 11:59:03;;;;;;;6.80;2.88;;;;;;;14.95;81.53;100582.31;5023754;28;20045;-67
2022/09/27 12:01:43;;;;;;;4.53;2.72;;;;;;;14.95;81.45;100577.13;5030707;28;20083;-67